Time;durP1;ratioP1;P1;durP2;ratioP2;P2;SDS_P1;SDS_P2;PMS_P1;PMS_P2;Temp;Humidity;BMP_temperature;BMP_pressure;BME280_temperature;BME280_humidity;BME280_pressure;Samples;Min_cycle;Max_cycle;Signal;HPM_P1;HPM_P2
2022/06/17 00:00:04;;;;;;;5.20;3.50;;;;;;;14.36;90.96;96843.02;106790;1274;103966;-79
2022/06/17 00:02:56;;;;;;;6.60;4.10;;;;;;;14.28;91.11;96843.63;106671;1274;161852;-79
2022/06/17 00:05:27;;;;;;;5.70;4.40;;;;;;;14.22;91.31;96845.08;106736;1274;135054;-79
2022/06/17 00:07:58;;;;;;;7.30;4.00;;;;;;;14.20;91.79;96848.10;106427;1274;212286;-79
2022/06/17 00:10:30;;;;;;;7.10;4.70;;;;;;;14.19;92.15;96848.48;106821;1274;82872;-79
2022/06/17 00:13:01;;;;;;;6.30;4.40;;;;;;;14.18;92.15;96849.84;106507;1274;169466;-79
2022/06/17 00:15:32;;;;;;;6.70;4.50;;;;;;;14.15;91.98;96842.97;106863;1275;80792;-79
2022/06/17 00:18:04;;;;;;;6.70;4.50;;;;;;;14.10;91.99;96843.77;106685;1274;149040;-79
2022/06/17 00:20:37;;;;;;;8.90;4.70;;;;;;;14.04;91.98;96847.81;106013;1274;1801546;-79
2022/06/17 00:23:13;;;;;;;6.70;4.30;;;;;;;13.96;92.27;96844.96;105034;1274;1501174;-78
2022/06/17 00:25:46;;;;;;;6.20;4.60;;;;;;;13.82;92.31;96849.42;107293;1273;37253;-79
2022/06/17 00:28:21;;;;;;;6.50;4.70;;;;;;;13.69;92.57;96847.48;106218;1274;1190891;-79
2022/06/17 00:30:53;;;;;;;6.70;5.10;;;;;;;13.63;93.00;96847.07;105712;1274;1429334;-78
2022/06/17 00:33:24;;;;;;;6.60;5.00;;;;;;;13.59;93.64;96853.52;106834;1273;98807;-79
2022/06/17 00:35:58;;;;;;;8.70;6.20;;;;;;;13.61;93.90;96856.05;106605;1273;187510;-79
2022/06/17 00:38:33;;;;;;;6.40;4.80;;;;;;;13.60;94.13;96854.05;106811;1274;108602;-79
2022/06/17 00:41:18;;;;;;;5.60;4.70;;;;;;;13.62;94.30;96854.96;106732;1273;198249;-79
2022/06/17 00:43:50;;;;;;;6.10;3.80;;;;;;;13.70;94.36;96853.41;107217;1274;54367;-78
2022/06/17 00:46:30;;;;;;;4.90;3.80;;;;;;;13.78;94.23;96856.42;105397;1274;1485687;-78
2022/06/17 00:49:12;;;;;;;5.30;3.50;;;;;;;13.82;93.99;96855.02;106814;1274;99139;-79
2022/06/17 00:51:50;;;;;;;5.00;3.80;;;;;;;13.85;93.57;96850.92;106377;1274;196468;-78
2022/06/17 00:54:26;;;;;;;3.50;2.90;;;;;;;13.86;93.19;96841.68;106807;1274;106296;-78
2022/06/17 00:56:57;;;;;;;8.10;3.40;;;;;;;13.89;93.15;96846.67;105269;1274;1769631;-79
2022/06/17 00:59:29;;;;;;;5.60;3.40;;;;;;;13.89;93.09;96849.19;106756;1274;161350;-78
2022/06/17 01:02:04;;;;;;;6.10;3.60;;;;;;;13.89;93.09;96846.10;106557;1274;168650;-79
2022/06/17 01:04:41;;;;;;;5.30;3.60;;;;;;;13.88;92.99;96857.64;106941;1273;139839;-79
2022/06/17 01:07:17;;;;;;;6.40;3.90;;;;;;;13.86;92.86;96859.52;106669;1274;124377;-79
2022/06/17 01:10:01;;;;;;;5.50;3.70;;;;;;;13.87;92.99;96859.41;106620;1273;143639;-79
2022/06/17 01:12:37;;;;;;;5.30;3.80;;;;;;;13.88;92.94;96860.09;106851;1274;91782;-79
2022/06/17 01:15:12;;;;;;;5.10;3.40;;;;;;;13.88;92.89;96854.85;104626;1274;1944755;-79
2022/06/17 01:17:44;;;;;;;6.50;3.80;;;;;;;13.85;92.78;96853.31;106806;1274;136661;-79
2022/06/17 01:20:17;;;;;;;7.10;3.80;;;;;;;13.81;92.82;96856.02;106701;1275;132465;-78
2022/06/17 01:22:51;;;;;;;5.40;3.90;;;;;;;13.79;92.80;96857.66;107211;1274;37213;-78
2022/06/17 01:25:25;;;;;;;8.80;4.20;;;;;;;13.76;92.94;96857.09;105458;1274;2004484;-78
2022/06/17 01:27:59;;;;;;;7.50;4.20;;;;;;;13.73;93.20;96861.35;107239;1274;40063;-78
2022/06/17 01:30:36;;;;;;;6.30;3.80;;;;;;;13.74;93.43;96870.55;106070;1274;1578832;-79
2022/06/17 01:33:11;;;;;;;6.00;3.80;;;;;;;13.73;93.27;96872.17;107291;1274;35627;-79
2022/06/17 01:35:47;;;;;;;5.10;3.60;;;;;;;13.71;93.16;96881.48;104783;1274;2060154;-79
2022/06/17 01:38:19;;;;;;;6.40;4.20;;;;;;;13.68;93.16;96881.84;107111;1274;166084;-79
2022/06/17 01:40:54;;;;;;;7.10;4.40;;;;;;;13.68;93.32;96881.59;105656;1274;1343206;-79
2022/06/17 01:43:31;;;;;;;6.00;3.90;;;;;;;13.69;93.44;96877.09;106804;1274;101051;-79
2022/06/17 01:46:07;;;;;;;7.70;4.10;;;;;;;13.69;93.27;96883.02;106651;1274;153471;-79
2022/06/17 01:48:53;;;;;;;5.20;4.20;;;;;;;13.69;93.33;96884.08;106945;1274;91526;-79
2022/06/17 01:51:28;;;;;;;5.20;3.90;;;;;;;13.70;93.19;96885.13;105660;1274;1450000;-79
2022/06/17 01:54:05;;;;;;;6.50;4.80;;;;;;;13.71;93.25;96890.91;107122;1274;119850;-79
2022/06/17 01:56:42;;;;;;;5.40;3.70;;;;;;;13.74;93.24;96895.97;106922;1274;242046;-79
2022/06/17 01:59:18;;;;;;;7.40;5.60;;;;;;;13.69;93.04;96896.40;107100;1274;37564;-78
2022/06/17 02:01:54;;;;;;;6.20;4.20;;;;;;;13.70;93.24;96898.45;106534;1274;252625;-79
2022/06/17 02:04:29;;;;;;;6.70;4.70;;;;;;;13.63;93.31;96905.36;106857;1274;84512;-79
2022/06/17 02:07:05;;;;;;;8.80;5.00;;;;;;;13.64;93.61;96908.10;106614;1274;193843;-79
2022/06/17 02:09:36;;;;;;;11.70;9.00;;;;;;;13.69;93.94;96904.69;106954;1274;82474;-79
2022/06/17 02:12:10;;;;;;;13.40;11.10;;;;;;;13.83;94.38;96906.48;106973;1274;134565;-79
2022/06/17 02:14:41;;;;;;;13.30;10.20;;;;;;;14.06;94.75;96908.02;106908;1274;81985;-79
2022/06/17 02:17:12;;;;;;;12.90;8.70;;;;;;;14.19;94.11;96912.15;106727;1274;160038;-79
2022/06/17 02:19:46;;;;;;;10.70;7.90;;;;;;;14.20;93.70;96916.77;106612;1274;141069;-79
2022/06/17 02:22:24;;;;;;;9.50;7.50;;;;;;;14.19;93.49;96919.74;106860;1275;81375;-79
2022/06/17 02:24:58;;;;;;;10.70;7.40;;;;;;;14.12;93.03;96923.44;106587;1274;224908;-79
2022/06/17 02:27:32;;;;;;;9.60;7.50;;;;;;;14.08;93.10;96921.81;106775;1274;143902;-79
2022/06/17 02:30:04;;;;;;;11.10;8.70;;;;;;;14.06;93.21;96920.38;107001;1274;141673;-79
2022/06/17 02:32:36;;;;;;;10.20;8.80;;;;;;;14.06;93.51;96921.25;107322;1274;77512;-79
2022/06/17 02:35:16;;;;;;;11.50;9.70;;;;;;;14.03;93.69;96924.33;106562;1274;223800;-79
2022/06/17 02:37:47;;;;;;;14.40;12.70;;;;;;;14.05;94.04;96921.68;107164;1274;45439;-79
2022/06/17 02:40:29;;;;;;;16.20;12.40;;;;;;;14.11;94.25;96929.60;105322;1274;1827288;-79
2022/06/17 02:43:04;;;;;;;14.60;13.10;;;;;;;14.11;94.12;96928.27;106827;1274;118661;-79
2022/06/17 02:45:43;;;;;;;16.70;14.10;;;;;;;14.10;94.18;96933.73;106733;1274;146377;-79
2022/06/17 02:48:22;;;;;;;18.30;13.90;;;;;;;14.12;94.39;96937.26;106683;1274;162640;-79
2022/06/17 02:50:55;;;;;;;16.00;13.50;;;;;;;14.17;94.45;96935.60;106621;1274;142096;-79
2022/06/17 02:53:32;;;;;;;13.50;11.30;;;;;;;14.25;94.22;96938.73;106709;1274;128584;-79
2022/06/17 02:56:07;;;;;;;12.80;10.80;;;;;;;14.37;93.97;96942.05;106723;1274;143255;-79
2022/06/17 02:58:51;;;;;;;12.60;10.40;;;;;;;14.43;93.49;96940.66;106793;1274;153319;-79
2022/06/17 03:01:26;;;;;;;12.20;9.30;;;;;;;14.53;93.32;96936.02;106850;1274;95666;-79
2022/06/17 03:03:58;;;;;;;12.70;9.70;;;;;;;14.61;92.80;96940.55;106945;1274;158561;-79
2022/06/17 03:06:33;;;;;;;11.80;9.30;;;;;;;14.62;92.50;96947.48;107045;1274;116013;-79
2022/06/17 03:09:18;;;;;;;12.70;9.10;;;;;;;14.58;92.20;96941.90;106905;1274;154296;-79
2022/06/17 03:11:54;;;;;;;9.80;8.40;;;;;;;14.53;92.11;96942.96;106682;1274;110315;-79
2022/06/17 03:14:29;;;;;;;11.10;8.70;;;;;;;14.51;92.06;96945.35;106638;1274;195363;-79
2022/06/17 03:17:06;;;;;;;9.70;8.30;;;;;;;14.50;91.97;96945.33;106560;1274;152758;-79
2022/06/17 03:19:39;;;;;;;10.20;7.00;;;;;;;14.49;92.11;96946.71;107249;1274;113564;-79
2022/06/17 03:22:13;;;;;;;9.20;6.80;;;;;;;14.46;91.93;96945.27;106857;1274;189220;-78
2022/06/17 03:24:54;;;;;;;10.50;7.20;;;;;;;14.43;91.92;96950.74;106968;1274;85671;-79
2022/06/17 03:27:33;;;;;;;8.50;7.40;;;;;;;14.42;92.02;96951.72;106866;1274;196723;-79
2022/06/17 03:30:06;;;;;;;8.20;6.90;;;;;;;14.41;92.23;96951.73;107237;1274;96149;-79
2022/06/17 03:32:41;;;;;;;10.10;7.40;;;;;;;14.45;92.50;96950.89;107095;1274;136098;-79
2022/06/17 03:35:20;;;;;;;11.50;7.80;;;;;;;14.54;92.71;96952.98;107129;1274;103771;-79
2022/06/17 03:37:58;;;;;;;11.90;8.90;;;;;;;14.69;92.79;96951.30;106642;1274;198540;-79
2022/06/17 03:40:35;;;;;;;11.00;8.80;;;;;;;14.86;92.70;96958.09;106802;1274;97308;-79
2022/06/17 03:43:11;;;;;;;10.50;8.30;;;;;;;14.94;92.40;96952.75;106841;1274;180263;-79
2022/06/17 03:45:48;;;;;;;10.90;9.00;;;;;;;15.01;92.17;96952.92;106840;1274;79503;-79
2022/06/17 03:48:29;;;;;;;12.90;9.90;;;;;;;15.11;92.07;96953.91;105752;1274;1231228;-79
2022/06/17 03:51:00;;;;;;;11.80;9.90;;;;;;;15.25;91.92;96949.49;106768;1274;80754;-79
2022/06/17 03:53:34;;;;;;;10.60;9.30;;;;;;;15.34;91.62;96954.02;106688;1274;193412;-79
2022/06/17 03:56:13;;;;;;;11.70;9.90;;;;;;;15.35;91.35;96955.45;107275;1274;119944;-80
2022/06/17 03:58:45;;;;;;;13.50;10.70;;;;;;;15.34;91.13;96959.40;106466;1274;205015;-79
2022/06/17 04:01:26;;;;;;;12.90;11.60;;;;;;;15.36;90.78;96959.11;107101;1274;80068;-79
2022/06/17 04:04:04;;;;;;;13.30;11.90;;;;;;;15.39;90.46;96960.73;106838;1274;148007;-79
2022/06/17 04:06:42;;;;;;;15.70;11.70;;;;;;;15.40;90.26;96960.23;107191;1274;159755;-79
2022/06/17 04:09:19;;;;;;;12.60;9.70;;;;;;;15.42;90.03;96964.94;104661;1274;2048553;-78
2022/06/17 04:11:56;;;;;;;14.20;10.50;;;;;;;15.43;89.72;96963.21;107122;1274;53401;-79
2022/06/17 04:14:32;;;;;;;10.20;9.10;;;;;;;15.42;89.51;96966.07;107158;1274;47734;-79
2022/06/17 04:17:11;;;;;;;10.60;9.40;;;;;;;15.41;89.35;96971.96;105800;1274;1743577;-79
2022/06/17 04:19:45;;;;;;;11.40;9.20;;;;;;;15.40;89.31;96971.17;106818;1275;91926;-79
2022/06/17 04:22:20;;;;;;;10.60;9.00;;;;;;;15.43;89.07;96977.04;106638;1274;143476;-79
2022/06/17 04:24:58;;;;;;;10.60;9.20;;;;;;;15.49;88.86;96978.10;106810;1274;82510;-78
2022/06/17 04:27:56;;;;;;;11.10;9.00;;;;;;;15.59;88.96;96986.14;106624;1274;175553;-79
2022/06/17 04:30:29;;;;;;;10.80;8.90;;;;;;;15.72;88.71;96992.86;106780;1274;83801;-79
2022/06/17 04:33:05;;;;;;;12.10;10.20;;;;;;;15.76;88.46;96993.15;106669;1274;135417;-79
2022/06/17 04:35:38;;;;;;;11.10;9.10;;;;;;;15.83;88.44;96995.60;107022;1274;85642;-79
2022/06/17 04:38:10;;;;;;;15.50;12.10;;;;;;;15.94;88.22;96998.84;106622;1272;119910;-78
2022/06/17 04:40:46;;;;;;;16.60;12.10;;;;;;;16.01;87.99;97003.27;106788;1274;105516;-79
2022/06/17 04:43:33;;;;;;;12.30;10.20;;;;;;;16.10;88.01;97007.04;106515;1274;178979;-79
2022/06/17 04:46:13;;;;;;;11.00;8.70;;;;;;;16.22;88.10;97011.29;107034;1274;80287;-79
2022/06/17 04:48:45;;;;;;;11.80;9.50;;;;;;;16.26;87.55;97010.44;106560;1274;149590;-80
2022/06/17 04:51:17;;;;;;;14.60;12.80;;;;;;;16.33;87.52;97014.98;106999;1274;149415;-79
2022/06/17 04:53:50;;;;;;;15.10;13.30;;;;;;;16.33;87.01;97008.66;106959;1274;173679;-79
2022/06/17 04:56:28;;;;;;;14.20;12.80;;;;;;;16.31;86.64;97006.48;105543;1274;2086454;-79
2022/06/17 04:59:00;;;;;;;15.20;12.10;;;;;;;16.36;86.93;97008.88;107128;1274;126660;-79
2022/06/17 05:01:33;;;;;;;16.50;14.80;;;;;;;16.35;86.44;97008.30;107012;1274;158752;-79
2022/06/17 05:04:06;;;;;;;17.50;15.70;;;;;;;16.28;86.72;97011.77;107095;1274;86920;-79
2022/06/17 05:06:37;;;;;;;18.60;16.70;;;;;;;16.37;86.96;97007.17;106813;1274;180359;-80
2022/06/17 05:09:16;;;;;;;19.90;17.00;;;;;;;16.43;86.94;97007.33;106937;1274;89576;-79
2022/06/17 05:11:49;;;;;;;20.90;18.10;;;;;;;16.56;86.92;97003.43;106752;1274;187697;-79
2022/06/17 05:14:32;;;;;;;18.60;16.70;;;;;;;16.65;86.79;97008.41;107135;1273;89347;-79
2022/06/17 05:17:04;;;;;;;20.40;18.20;;;;;;;16.75;86.79;97009.99;106940;1273;132390;-79
2022/06/17 05:19:35;;;;;;;24.70;22.30;;;;;;;16.70;85.86;97005.77;107173;1273;115369;-79
2022/06/17 05:22:14;;;;;;;23.40;21.00;;;;;;;16.50;85.87;97009.33;106942;1273;194278;-79
2022/06/17 05:24:46;;;;;;;25.60;22.90;;;;;;;16.42;85.83;97011.00;106801;1273;116816;-79
2022/06/17 05:27:18;;;;;;;22.10;19.90;;;;;;;16.29;85.86;97012.88;106466;1274;186939;-79
2022/06/17 05:29:52;;;;;;;26.50;24.00;;;;;;;16.22;85.93;97014.44;106779;1274;126793;-79
2022/06/17 05:32:24;;;;;;;26.80;24.10;;;;;;;16.08;86.08;97012.16;106927;1273;236084;-79
2022/06/17 05:34:55;;;;;;;26.40;23.80;;;;;;;15.93;86.36;97015.75;107110;1273;140154;-79
2022/06/17 05:37:27;;;;;;;27.00;24.40;;;;;;;15.82;86.82;97021.98;107122;1274;59979;-79
2022/06/17 05:39:58;;;;;;;29.90;26.80;;;;;;;15.77;87.10;97021.26;106583;1273;182158;-79
2022/06/17 05:42:29;;;;;;;30.30;27.50;;;;;;;15.66;87.20;97015.61;106889;1274;86362;-79
2022/06/17 05:45:01;;;;;;;28.80;25.90;;;;;;;15.64;87.95;97021.44;106546;1274;217015;-79
2022/06/17 05:47:32;;;;;;;27.30;24.60;;;;;;;15.71;88.46;97032.23;106765;1274;94677;-79
2022/06/17 05:50:03;;;;;;;24.70;22.30;;;;;;;15.74;88.63;97040.55;106583;1274;198579;-79
2022/06/17 05:52:35;;;;;;;28.60;25.90;;;;;;;15.64;88.42;97048.74;106811;1274;136510;-79
2022/06/17 05:55:08;;;;;;;28.40;25.70;;;;;;;15.49;88.84;97047.73;105192;1274;2034808;-78
2022/06/17 05:57:41;;;;;;;24.80;22.20;;;;;;;15.32;89.19;97034.52;107208;1274;1479059;-78
2022/06/17 06:00:15;;;;;;;26.40;23.80;;;;;;;15.17;89.77;97033.15;104633;1274;2645693;-78
2022/06/17 06:02:47;;;;;;;28.90;26.00;;;;;;;15.10;90.51;97045.79;106952;1274;176177;-78
2022/06/17 06:05:22;;;;;;;27.80;25.10;;;;;;;15.05;91.09;97044.65;105381;1274;1592240;-78
2022/06/17 06:07:54;;;;;;;30.90;27.80;;;;;;;15.00;91.82;97050.35;106786;1274;121052;-79
2022/06/17 06:10:26;;;;;;;30.30;27.30;;;;;;;15.01;92.43;97055.14;106439;1274;240458;-78
2022/06/17 06:13:03;;;;;;;34.70;31.50;;;;;;;15.07;92.69;97049.90;106830;1274;85903;-79
2022/06/17 06:15:39;;;;;;;31.80;28.80;;;;;;;15.16;93.06;97052.70;106619;1274;262361;-79
2022/06/17 06:18:13;;;;;;;30.60;27.80;;;;;;;15.23;93.15;97058.99;106773;1274;129985;-78
2022/06/17 06:20:45;;;;;;;33.60;30.30;;;;;;;15.28;93.02;97060.55;106819;1274;204637;-78
2022/06/17 06:23:16;;;;;;;32.90;29.90;;;;;;;15.36;93.21;97063.76;106771;1274;102091;-78
2022/06/17 06:25:48;;;;;;;33.80;30.50;;;;;;;15.52;93.50;97068.26;104821;1274;1809855;-78
2022/06/17 06:28:23;;;;;;;31.00;28.00;;;;;;;15.69;93.69;97065.25;107143;1274;57012;-78
2022/06/17 06:30:57;;;;;;;30.00;26.90;;;;;;;15.92;94.13;97066.43;106797;1273;135493;-78
2022/06/17 06:33:29;;;;;;;25.70;23.30;;;;;;;16.14;93.60;97061.86;106602;1274;194981;-79
2022/06/17 06:36:01;;;;;;;26.40;23.70;;;;;;;16.36;92.77;97063.38;106591;1273;197580;-78
2022/06/17 06:38:34;;;;;;;28.40;25.50;;;;;;;16.64;91.38;97068.77;105169;1273;1833789;-79
2022/06/17 06:41:06;;;;;;;27.20;24.60;;;;;;;16.68;90.59;97066.29;106880;1274;129170;-79
2022/06/17 06:43:38;;;;;;;26.20;23.70;;;;;;;16.77;91.05;97070.61;106782;1274;213151;-79
2022/06/17 06:46:13;;;;;;;23.80;21.30;;;;;;;16.88;90.15;97067.21;106799;1274;81349;-78
2022/06/17 06:48:45;;;;;;;24.20;21.50;;;;;;;16.91;89.31;97066.57;106599;1274;130523;-78
2022/06/17 06:51:16;;;;;;;21.00;19.10;;;;;;;17.62;91.27;97064.36;106765;1274;90614;-79
2022/06/17 06:53:48;;;;;;;21.50;19.60;;;;;;;19.41;87.87;97071.64;106596;1273;168019;-79
2022/06/17 06:56:21;;;;;;;17.40;15.60;;;;;;;20.95;85.46;97069.55;107094;1274;50204;-79
2022/06/17 06:58:52;;;;;;;15.80;14.30;;;;;;;21.51;78.80;97071.29;106782;1274;91703;-79
2022/06/17 07:01:26;;;;;;;17.20;15.50;;;;;;;20.51;75.47;97071.64;106620;1274;185908;-80
2022/06/17 07:04:00;;;;;;;17.50;15.90;;;;;;;19.62;76.17;97080.70;107088;1274;89034;-80
2022/06/17 07:06:32;;;;;;;16.60;15.00;;;;;;;19.07;77.24;97084.29;104895;1274;1942639;-79
2022/06/17 07:09:09;;;;;;;18.40;16.60;;;;;;;18.66;77.46;97086.27;106757;1274;155890;-79
2022/06/17 07:11:41;;;;;;;19.40;17.60;;;;;;;19.02;80.57;97082.38;105714;1274;1577360;-79
2022/06/17 07:14:12;;;;;;;15.20;13.80;;;;;;;21.73;80.66;97079.59;106888;1274;171506;-80
2022/06/17 07:16:44;;;;;;;14.10;12.80;;;;;;;23.74;73.26;97082.20;106978;1274;151706;-80
2022/06/17 07:19:19;;;;;;;12.40;11.30;;;;;;;25.08;66.70;97068.54;106807;1274;144395;-80
2022/06/17 07:21:51;;;;;;;11.40;10.30;;;;;;;26.06;62.85;97064.27;107012;1274;89047;-81
2022/06/17 07:24:22;;;;;;;11.40;10.30;;;;;;;27.12;58.64;97064.91;106715;1273;175681;-81
2022/06/17 07:26:54;;;;;;;9.60;8.80;;;;;;;26.78;55.90;97066.83;107085;1274;90949;-81
2022/06/17 07:29:25;;;;;;;12.40;11.20;;;;;;;25.81;55.80;97066.86;106932;1273;167051;-81
2022/06/17 07:31:57;;;;;;;12.00;11.00;;;;;;;24.61;56.79;97069.05;107050;1273;103107;-81
2022/06/17 07:34:28;;;;;;;11.80;10.70;;;;;;;25.16;57.38;97070.60;105790;1273;1454428;-81
2022/06/17 07:39:54;;;;;;;11.40;10.30;;;;;;;27.01;53.53;97068.39;106819;1274;138461;-80
2022/06/17 07:42:37;;;;;;;8.60;7.80;;;;;;;28.10;51.86;97063.85;107095;1274;182139;-81
2022/06/17 07:45:15;;;;;;;10.40;9.40;;;;;;;29.22;48.17;97068.39;106818;1274;209909;-81
2022/06/17 07:47:48;;;;;;;12.90;11.70;;;;;;;28.23;45.42;97075.16;107128;1274;95850;-80
2022/06/17 07:50:25;;;;;;;12.20;11.10;;;;;;;25.77;48.48;97079.08;106897;1274;179285;-80
2022/06/17 07:52:57;;;;;;;11.90;10.70;;;;;;;25.02;51.21;97078.83;107088;1274;96947;-81
2022/06/17 07:55:29;;;;;;;10.70;9.70;;;;;;;25.65;52.41;97074.20;106900;1274;164347;-80
2022/06/17 07:58:00;;;;;;;12.80;11.50;;;;;;;26.07;48.94;97080.04;106869;1274;205448;-81
2022/06/17 08:00:35;;;;;;;12.00;10.90;;;;;;;24.93;50.64;97081.93;107179;1273;74437;-80
2022/06/17 08:03:07;;;;;;;13.10;12.00;;;;;;;24.73;51.93;97091.01;106948;1274;145696;-80
2022/06/17 08:05:40;;;;;;;13.90;12.60;;;;;;;23.99;51.95;97097.19;107269;1274;108760;-80
2022/06/17 08:08:12;;;;;;;12.90;11.80;;;;;;;23.21;53.61;97093.16;106950;1274;186344;-80
2022/06/17 08:10:44;;;;;;;13.90;12.50;;;;;;;23.63;54.39;97093.46;107042;1274;117943;-80
2022/06/17 08:13:16;;;;;;;14.90;13.60;;;;;;;23.48;54.60;97102.39;106950;1274;170023;-80
2022/06/17 08:15:48;;;;;;;13.30;12.00;;;;;;;23.07;55.33;97100.14;107155;1274;85537;-80
2022/06/17 08:18:20;;;;;;;17.90;16.30;;;;;;;22.32;54.77;97098.70;106715;1274;171485;-79
2022/06/17 08:20:52;;;;;;;17.20;15.60;;;;;;;21.13;56.31;97100.23;107070;1274;175403;-79
2022/06/17 08:23:24;;;;;;;18.50;16.50;;;;;;;20.22;58.25;97101.22;107131;1274;86941;-79
2022/06/17 08:25:57;;;;;;;15.60;14.20;;;;;;;21.51;61.88;97100.24;107069;1274;133209;-80
2022/06/17 08:28:30;;;;;;;14.70;13.40;;;;;;;24.29;56.93;97096.13;107182;1274;43145;-80
2022/06/17 08:31:02;;;;;;;13.80;12.20;;;;;;;25.03;53.12;97099.32;105387;1274;2173329;-81
2022/06/17 08:33:33;;;;;;;13.50;12.20;;;;;;;24.82;52.12;97104.51;106232;1273;1219492;-80
2022/06/17 08:36:09;;;;;;;15.20;13.80;;;;;;;23.40;51.54;97110.03;106489;1273;234552;-80
2022/06/17 08:38:45;;;;;;;16.40;15.00;;;;;;;22.19;55.04;97118.79;107066;1273;168491;-79
2022/06/17 08:41:29;;;;;;;14.60;13.30;;;;;;;23.23;54.56;97116.48;106800;1273;189587;-79
2022/06/17 08:44:32;;;;;;;14.10;12.80;;;;;;;22.46;53.42;97113.88;107117;1273;94110;-80
2022/06/17 08:47:33;;;;;;;18.60;16.90;;;;;;;21.06;56.16;97125.39;106574;1274;176993;-78
2022/06/17 08:50:26;;;;;;;20.30;18.40;;;;;;;20.27;58.66;97132.17;106913;1274;79833;-79
2022/06/17 08:53:16;;;;;;;21.30;19.00;;;;;;;19.66;60.17;97136.72;106639;1274;147861;-79
2022/06/17 08:55:58;;;;;;;19.50;17.50;;;;;;;19.46;61.83;97132.77;107234;1274;37097;-79
2022/06/17 08:58:40;;;;;;;20.70;18.70;;;;;;;19.92;63.02;97132.55;105657;1274;1818513;-79
2022/06/17 09:01:22;;;;;;;21.90;19.80;;;;;;;20.10;62.19;97137.69;107215;1274;40003;-79
2022/06/17 09:04:08;;;;;;;22.30;20.10;;;;;;;19.97;62.49;97140.27;106847;1273;192572;-79
2022/06/17 09:06:53;;;;;;;25.70;23.30;;;;;;;19.90;62.96;97147.25;107307;1274;51337;-79
2022/06/17 09:09:48;;;;;;;21.80;19.60;;;;;;;20.07;62.74;97147.21;104537;1274;2037865;-79
2022/06/17 09:12:31;;;;;;;23.00;20.70;;;;;;;20.04;62.98;97154.08;107112;1273;155745;-79
2022/06/17 09:15:14;;;;;;;21.30;17.70;;;;;;;20.09;62.63;97142.67;106154;1274;1192341;-79
2022/06/17 09:17:55;;;;;;;23.60;21.30;;;;;;;19.78;63.56;97150.91;107137;1274;41237;-79
2022/06/17 09:20:36;;;;;;;24.00;21.70;;;;;;;20.01;63.68;97155.89;105435;1274;2097704;-79
2022/06/17 09:23:10;;;;;;;24.60;22.30;;;;;;;20.02;63.58;97162.77;106870;1274;106863;-79
2022/06/17 09:25:45;;;;;;;23.10;20.90;;;;;;;20.17;64.33;97168.88;105562;1274;1544794;-78
2022/06/17 09:28:23;;;;;;;20.70;17.90;;;;;;;20.44;62.60;97171.55;106757;1273;100103;-79
2022/06/17 09:31:02;;;;;;;22.10;19.80;;;;;;;20.46;61.92;97173.61;105794;1274;1280358;-79
2022/06/17 09:33:39;;;;;;;22.20;19.80;;;;;;;20.13;62.48;97181.35;106788;1274;97245;-79
2022/06/17 09:36:17;;;;;;;21.60;19.40;;;;;;;19.90;63.01;97184.35;106513;1274;174065;-77
2022/06/17 09:38:58;;;;;;;22.70;20.30;;;;;;;19.30;63.15;97194.89;106902;1274;219172;-78
2022/06/17 09:41:36;;;;;;;22.10;20.00;;;;;;;18.90;64.54;97190.80;106478;1274;221763;-79
2022/06/17 09:44:12;;;;;;;20.70;18.50;;;;;;;19.07;65.51;97187.88;106938;1273;157216;-79
2022/06/17 09:46:48;;;;;;;16.90;12.70;;;;;;;19.20;65.79;97188.45;106566;1274;268144;-78
2022/06/17 09:49:25;;;;;;;17.60;15.70;;;;;;;18.95;64.63;97190.92;106874;1274;85720;-78
2022/06/17 09:52:04;;;;;;;19.10;17.20;;;;;;;18.64;65.10;97194.20;105750;1274;1842459;-78
2022/06/17 09:54:42;;;;;;;20.20;18.30;;;;;;;18.99;65.71;97187.79;107093;1274;140392;-79
2022/06/17 09:57:20;;;;;;;20.00;18.00;;;;;;;19.52;65.72;97191.64;106562;1274;259690;-79
2022/06/17 10:00:01;;;;;;;19.00;17.30;;;;;;;19.82;63.82;97189.80;106781;1274;102523;-79
2022/06/17 10:02:35;;;;;;;16.80;15.30;;;;;;;20.15;64.10;97195.55;106907;1273;179189;-80
2022/06/17 10:05:26;;;;;;;16.70;15.00;;;;;;;20.29;62.70;97192.50;106918;1273;95989;-79
2022/06/17 10:08:05;;;;;;;16.90;15.30;;;;;;;20.31;61.49;97193.81;106427;1273;176991;-79
2022/06/17 10:10:47;;;;;;;16.70;15.10;;;;;;;20.15;61.44;97194.29;106963;1274;111704;-79
2022/06/17 10:13:32;;;;;;;16.30;14.70;;;;;;;20.66;64.14;97196.36;106573;1273;178308;-79
2022/06/17 10:19:16;;;;;;;16.60;14.90;;;;;;;20.81;60.95;97195.69;106805;1274;215690;-80
2022/06/17 10:22:04;;;;;;;16.10;14.50;;;;;;;20.88;61.27;97192.17;107160;1274;74698;-79
2022/06/17 10:24:50;;;;;;;16.60;15.00;;;;;;;21.18;62.27;97188.52;107089;1273;161881;-79
2022/06/17 10:27:34;;;;;;;17.30;15.70;;;;;;;21.44;61.22;97190.98;107127;1272;84377;-79
2022/06/17 10:30:11;;;;;;;16.40;15.00;;;;;;;20.95;58.50;97193.58;106989;1274;157279;-80
2022/06/17 10:32:48;;;;;;;17.00;15.40;;;;;;;20.21;59.13;97193.11;107019;1274;154373;-79
2022/06/17 10:35:27;;;;;;;19.90;18.10;;;;;;;19.80;60.43;97194.11;106715;1274;184629;-79
2022/06/17 10:38:00;;;;;;;19.90;18.00;;;;;;;19.65;61.67;97196.55;107052;1274;153898;-80
2022/06/17 10:40:34;;;;;;;18.90;17.10;;;;;;;19.64;62.57;97193.39;105829;1274;1478354;-80
2022/06/17 10:43:11;;;;;;;19.20;17.40;;;;;;;20.06;62.77;97189.93;107165;1273;85992;-80
2022/06/17 10:45:42;;;;;;;18.80;17.10;;;;;;;20.55;62.72;97185.41;106900;1274;168811;-79
2022/06/17 10:48:26;;;;;;;18.70;16.90;;;;;;;20.89;62.40;97187.45;106907;1274;192618;-79
2022/06/17 10:50:59;;;;;;;20.50;17.90;;;;;;;21.18;61.37;97181.82;106963;1274;78727;-80
2022/06/17 10:53:35;;;;;;;20.40;16.20;;;;;;;21.40;61.83;97178.38;106506;1274;145071;-79
2022/06/17 10:56:09;;;;;;;14.90;13.40;;;;;;;21.59;59.56;97175.78;107166;1274;118848;-79
2022/06/17 10:58:55;;;;;;;14.80;13.30;;;;;;;21.40;58.35;97177.59;106336;1273;205702;-78
2022/06/17 11:01:28;;;;;;;13.30;11.90;;;;;;;21.19;58.59;97176.54;106811;1274;100796;-79
2022/06/17 11:04:16;;;;;;;14.80;13.30;;;;;;;21.06;58.54;97180.85;106898;1274;111712;-79
2022/06/17 11:06:53;;;;;;;14.40;12.60;;;;;;;20.95;58.57;97179.80;106811;1273;125038;-79
2022/06/17 11:09:28;;;;;;;12.00;10.70;;;;;;;20.84;58.94;97178.46;106770;1274;156315;-79
2022/06/17 11:12:07;;;;;;;15.20;13.70;;;;;;;20.98;59.65;97182.52;104665;1274;1778201;-79
2022/06/17 11:14:43;;;;;;;13.20;11.90;;;;;;;21.00;57.65;97188.36;107244;1274;38565;-79
2022/06/17 11:17:25;;;;;;;16.00;12.20;;;;;;;20.94;58.66;97185.83;106633;1274;222540;-78
2022/06/17 11:20:00;;;;;;;16.30;14.50;;;;;;;21.41;59.31;97188.17;107154;1274;71089;-79
2022/06/17 11:22:34;;;;;;;15.60;14.00;;;;;;;21.57;58.80;97184.95;105564;1274;1542231;-79
2022/06/17 11:25:21;;;;;;;14.60;13.20;;;;;;;21.49;57.63;97187.30;107230;1274;39208;-79
2022/06/17 11:27:58;;;;;;;15.10;12.40;;;;;;;21.00;56.98;97193.15;104328;1274;1739295;-80
2022/06/17 11:30:34;;;;;;;14.70;13.20;;;;;;;20.53;56.86;97201.42;107165;1274;34670;-80
2022/06/17 11:33:20;;;;;;;16.30;13.50;;;;;;;20.39;58.32;97200.33;103818;1274;2625891;-80
2022/06/17 11:36:07;;;;;;;14.60;11.80;;;;;;;20.63;59.11;97200.19;107110;1274;127524;-77
2022/06/17 11:38:38;;;;;;;14.70;13.20;;;;;;;21.04;58.99;97187.58;106648;1274;291935;-79
2022/06/17 11:41:19;;;;;;;14.40;12.90;;;;;;;21.12;57.83;97189.87;106763;1274;190985;-78
2022/06/17 11:43:52;;;;;;;13.90;10.60;;;;;;;20.77;57.34;97195.85;105157;1274;1996427;-79
2022/06/17 11:46:29;;;;;;;14.20;11.40;;;;;;;20.61;57.23;97202.36;105691;1274;2008480;-78
2022/06/17 11:49:08;;;;;;;13.90;11.40;;;;;;;20.46;56.70;97209.23;104079;1274;2167867;-79
2022/06/17 11:51:42;;;;;;;15.10;12.00;;;;;;;20.10;57.44;97207.30;107228;1274;57333;-78